createdAt,value
2022-07-30T00:01:14.058Z,75.11
2022-07-30T00:03:40.684Z,74.53
2022-07-30T00:06:07.162Z,74.74
2022-07-30T00:08:34.081Z,74.91
2022-07-30T00:11:00.647Z,74.28
2022-07-30T00:13:27.312Z,74.83
2022-07-30T00:15:54.199Z,74.39
2022-07-30T00:18:21.209Z,74.55
2022-07-30T00:20:48.922Z,74.39
2022-07-30T00:23:15.626Z,74.54
2022-07-30T00:25:42.231Z,74.48
2022-07-30T00:28:08.687Z,74.44
2022-07-30T00:30:35.462Z,74.14
2022-07-30T00:33:02.240Z,74.19
2022-07-30T00:35:28.875Z,74.24
2022-07-30T00:37:55.345Z,74.18
2022-07-30T00:40:22.099Z,74.11
2022-07-30T00:42:48.636Z,74.37
2022-07-30T00:45:16.916Z,73.95
2022-07-30T00:47:44.297Z,74.10
2022-07-30T00:50:13.578Z,74.58
2022-07-30T00:52:41.246Z,74.42
2022-07-30T00:55:10.242Z,74.74
2022-07-30T00:57:37.095Z,74.61
2022-07-30T01:00:09.386Z,74.95
2022-07-30T01:02:36.159Z,72.55
2022-07-30T01:05:02.748Z,74.19
2022-07-30T01:07:29.298Z,74.64
2022-07-30T01:09:55.911Z,75.04
2022-07-30T01:12:26.193Z,75.30
2022-07-30T01:14:55.417Z,75.35
2022-07-30T01:17:21.988Z,75.63
2022-07-30T01:19:56.307Z,75.74
2022-07-30T01:22:30.326Z,76.02
2022-07-30T01:25:03.512Z,76.02
2022-07-30T01:27:38.484Z,76.42
2022-07-30T01:30:06.379Z,76.10
2022-07-30T01:32:36.613Z,76.33
2022-07-30T01:35:04.687Z,74.29
2022-07-30T01:37:34.863Z,75.75
2022-07-30T01:40:01.707Z,75.90
2022-07-30T01:42:29.808Z,76.16
2022-07-30T01:44:58.435Z,75.94
2022-07-30T01:47:25.867Z,76.08
2022-07-30T01:49:54.709Z,76.15
2022-07-30T01:52:23.333Z,76.42
2022-07-30T01:54:52.374Z,76.51
2022-07-30T01:57:21.102Z,76.53
2022-07-30T01:59:52.033Z,76.45
2022-07-30T02:02:18.700Z,76.24
2022-07-30T02:04:45.299Z,76.32
2022-07-30T02:07:22.948Z,76.50
2022-07-30T02:09:58.012Z,76.61
2022-07-30T02:12:28.646Z,75.75
2022-07-30T02:15:06.700Z,75.79
2022-07-30T02:17:39.737Z,76.17
2022-07-30T02:20:13.485Z,76.37
2022-07-30T02:22:45.078Z,76.59
2022-07-30T02:25:15.216Z,76.09
2022-07-30T02:27:43.437Z,74.88
2022-07-30T02:30:11.174Z,76.15
2022-07-30T02:32:40.841Z,76.29
2022-07-30T02:35:27.392Z,76.83
2022-07-30T02:37:54.806Z,76.53
2022-07-30T02:40:23.363Z,76.71
2022-07-30T02:42:52.585Z,76.93
2022-07-30T02:45:20.092Z,76.60
2022-07-30T02:47:51.091Z,76.99
2022-07-30T02:50:20.095Z,77.12
2022-07-30T02:52:47.761Z,76.82
2022-07-30T02:55:17.819Z,76.94
2022-07-30T02:57:46.125Z,76.66
2022-07-30T03:00:13.058Z,76.66
2022-07-30T03:02:42.853Z,76.83
2022-07-30T03:05:11.598Z,76.57
2022-07-30T03:07:40.358Z,76.90
2022-07-30T03:10:08.552Z,76.96
2022-07-30T03:12:37.193Z,77.06
2022-07-30T03:15:04.134Z,76.62
2022-07-30T03:17:37.441Z,77.07
2022-07-30T03:20:08.894Z,77.45
2022-07-30T03:22:40.241Z,77.31
2022-07-30T03:25:08.207Z,76.85
2022-07-30T03:27:38.104Z,77.19
2022-07-30T03:30:06.094Z,77.04
2022-07-30T03:32:34.370Z,77.09
2022-07-30T03:35:05.895Z,77.02
2022-07-30T03:37:35.563Z,77.22
2022-07-30T03:40:02.701Z,77.14
2022-07-30T03:42:29.630Z,77.24
2022-07-30T03:44:57.311Z,77.34
2022-07-30T03:47:24.741Z,77.30
2022-07-30T03:49:52.512Z,77.40
2022-07-30T03:52:20.003Z,77.69
2022-07-30T03:54:47.565Z,77.83
2022-07-30T03:57:17.581Z,78.02
2022-07-30T03:59:51.673Z,78.28
2022-07-30T04:02:18.438Z,78.09
2022-07-30T04:04:44.889Z,78.60
2022-07-30T04:07:11.358Z,78.43
2022-07-30T04:09:37.914Z,78.67
2022-07-30T04:12:04.589Z,78.75
2022-07-30T04:14:42.342Z,79.12
2022-07-30T04:17:25.928Z,79.14
2022-07-30T04:19:56.345Z,78.66
2022-07-30T04:22:33.886Z,79.27
2022-07-30T04:25:02.222Z,78.60
2022-07-30T04:27:31.255Z,78.39
2022-07-30T04:29:57.868Z,78.06
2022-07-30T04:32:24.384Z,77.99
2022-07-30T04:34:53.859Z,78.04
2022-07-30T04:37:22.911Z,77.53
2022-07-30T04:39:51.422Z,77.35
2022-07-30T04:42:17.865Z,77.13
2022-07-30T04:44:44.343Z,77.38
2022-07-30T04:47:10.823Z,77.13
2022-07-30T04:49:39.098Z,76.89
2022-07-30T04:52:06.747Z,76.27
2022-07-30T04:54:38.916Z,76.64
2022-07-30T04:57:07.135Z,75.79
2022-07-30T04:59:37.211Z,76.17
2022-07-30T05:02:05.812Z,75.51
2022-07-30T05:04:33.342Z,75.27
2022-07-30T05:07:01.688Z,75.17
2022-07-30T05:09:31.643Z,76.02
2022-07-30T05:11:59.311Z,74.95
2022-07-30T05:14:26.868Z,75.12
2022-07-30T05:16:54.774Z,75.09
2022-07-30T05:19:21.722Z,75.34
2022-07-30T05:21:48.224Z,75.13
2022-07-30T05:24:15.079Z,75.24
2022-07-30T05:26:41.516Z,75.00
2022-07-30T05:29:08.282Z,74.72
2022-07-30T05:31:35.577Z,74.59
2022-07-30T05:34:04.970Z,74.56
2022-07-30T05:36:31.553Z,74.58
2022-07-30T05:38:58.213Z,74.58
2022-07-30T05:41:32.373Z,74.98
2022-07-30T05:44:00.240Z,74.66
2022-07-30T05:46:27.113Z,74.51
2022-07-30T05:48:53.993Z,74.26
2022-07-30T05:51:22.072Z,74.26
2022-07-30T05:53:48.602Z,74.19
2022-07-30T05:56:15.057Z,73.97
2022-07-30T05:58:41.584Z,74.16
2022-07-30T06:01:08.043Z,74.06
2022-07-30T06:03:35.113Z,74.03
2022-07-30T06:06:05.595Z,74.40
2022-07-30T06:08:32.248Z,73.86
2022-07-30T06:10:58.767Z,73.34
2022-07-30T06:13:25.772Z,73.51
2022-07-30T06:15:52.726Z,73.40
2022-07-30T06:18:19.296Z,72.98
2022-07-30T06:20:51.682Z,72.51
2022-07-30T06:23:18.380Z,72.88
2022-07-30T06:25:44.961Z,71.98
2022-07-30T06:28:35.910Z,72.27
2022-07-30T06:30:57.938Z,72.32
2022-07-30T06:33:24.338Z,73.22
2022-07-30T06:35:50.794Z,72.90
2022-07-30T06:38:17.426Z,72.90
2022-07-30T06:40:43.859Z,72.82
2022-07-30T06:43:10.395Z,72.88
2022-07-30T06:45:36.867Z,73.17
2022-07-30T06:48:03.616Z,73.13
2022-07-30T06:50:30.086Z,73.12
2022-07-30T06:52:56.512Z,74.01
2022-07-30T06:55:22.974Z,73.57
2022-07-30T06:57:49.448Z,73.13
2022-07-30T07:00:16.135Z,73.34
2022-07-30T07:02:43.369Z,73.41
2022-07-30T07:05:11.010Z,72.76
2022-07-30T07:07:42.193Z,73.21
2022-07-30T07:10:13.061Z,73.91
2022-07-30T07:12:39.519Z,74.84
2022-07-30T07:15:06.510Z,74.55
2022-07-30T07:17:32.947Z,75.03
2022-07-30T07:20:02.365Z,73.83
2022-07-30T07:22:29.757Z,74.14
2022-07-30T07:24:56.367Z,74.12
2022-07-30T07:27:22.973Z,72.84
2022-07-30T07:30:04.995Z,73.45
2022-07-30T07:32:33.678Z,73.84
2022-07-30T07:35:00.233Z,73.65
2022-07-30T07:37:27.008Z,73.59
2022-07-30T07:39:53.800Z,73.52
2022-07-30T07:42:20.235Z,72.80
2022-07-30T07:44:46.695Z,72.67
2022-07-30T07:47:13.173Z,72.27
2022-07-30T07:49:39.614Z,72.25
2022-07-30T07:52:06.501Z,70.19
2022-07-30T07:54:33.099Z,69.89
2022-07-30T07:57:00.784Z,71.09
2022-07-30T07:59:40.227Z,69.42
2022-07-30T08:02:08.061Z,68.62
2022-07-30T08:04:35.336Z,68.84
2022-07-30T08:07:02.404Z,67.71
2022-07-30T08:09:43.816Z,68.12
2022-07-30T08:12:12.510Z,66.95
2022-07-30T08:14:39.094Z,66.78
2022-07-30T08:17:06.185Z,65.78
2022-07-30T08:19:33.489Z,66.44
2022-07-30T08:22:00.108Z,66.51
2022-07-30T08:24:26.902Z,65.20
2022-07-30T08:26:53.511Z,64.77
2022-07-30T08:29:20.013Z,65.50
2022-07-30T08:31:46.497Z,64.36
2022-07-30T08:34:13.590Z,65.18
2022-07-30T08:36:40.267Z,63.84
2022-07-30T08:39:06.738Z,64.92
2022-07-30T08:41:33.340Z,64.44
2022-07-30T08:44:01.575Z,62.73
2022-07-30T08:46:31.289Z,62.71
2022-07-30T08:49:00.591Z,62.23
2022-07-30T08:51:35.305Z,61.49
2022-07-30T08:54:03.655Z,59.79
2022-07-30T08:56:32.596Z,60.00
2022-07-30T08:59:00.303Z,59.24
2022-07-30T09:01:27.547Z,59.15
2022-07-30T09:03:54.131Z,58.86
2022-07-30T09:06:20.676Z,58.51
2022-07-30T09:08:47.301Z,58.25
2022-07-30T09:11:14.078Z,58.98
2022-07-30T09:13:42.428Z,58.56
2022-07-30T09:16:20.922Z,59.86
2022-07-30T09:18:48.001Z,59.14
2022-07-30T09:21:15.758Z,59.14
2022-07-30T09:23:54.998Z,59.02
2022-07-30T09:26:21.486Z,58.30
2022-07-30T09:28:48.013Z,58.42
2022-07-30T09:31:15.834Z,58.79
2022-07-30T09:33:44.623Z,59.09
2022-07-30T09:36:18.431Z,59.25
2022-07-30T09:38:49.401Z,58.96
2022-07-30T09:41:37.687Z,58.65
2022-07-30T09:44:06.253Z,59.71
2022-07-30T09:46:45.417Z,58.86
2022-07-30T09:49:17.216Z,58.87
2022-07-30T09:51:55.805Z,58.89
2022-07-30T09:54:23.549Z,57.95
2022-07-30T09:57:25.577Z,58.40
2022-07-30T10:00:16.426Z,57.90
2022-07-30T10:02:45.339Z,57.93
2022-07-30T10:05:15.949Z,58.62
2022-07-30T10:07:52.604Z,58.89
2022-07-30T10:10:25.583Z,58.22
2022-07-30T10:13:01.175Z,58.45
2022-07-30T10:15:33.294Z,58.51
2022-07-30T10:18:02.615Z,57.87
2022-07-30T10:20:33.859Z,57.64
2022-07-30T10:23:08.084Z,56.90
2022-07-30T10:25:36.777Z,57.44
2022-07-30T10:28:17.528Z,57.35
2022-07-30T10:30:45.260Z,57.51
2022-07-30T10:33:36.265Z,57.67
2022-07-30T10:35:59.198Z,58.12
2022-07-30T10:38:32.485Z,56.97
2022-07-30T10:41:42.550Z,56.83
2022-07-30T10:44:31.163Z,57.86
2022-07-30T10:47:09.202Z,57.46
2022-07-30T10:49:41.037Z,57.17
2022-07-30T10:52:09.597Z,57.77
2022-07-30T10:54:47.229Z,57.80
2022-07-30T10:57:31.856Z,57.56
2022-07-30T11:00:00.005Z,57.09
2022-07-30T11:02:30.672Z,56.85
2022-07-30T11:05:16.095Z,56.43
2022-07-30T11:07:47.655Z,55.35
2022-07-30T11:10:37.944Z,55.71
2022-07-30T11:13:06.662Z,56.01
2022-07-30T11:15:51.571Z,54.88
2022-07-30T11:18:18.018Z,53.93
2022-07-30T11:21:20.673Z,54.39
2022-07-30T11:23:48.396Z,52.96
2022-07-30T11:26:52.612Z,53.60
2022-07-30T11:29:50.498Z,52.50
2022-07-30T11:32:28.116Z,52.04
2022-07-30T11:35:17.531Z,52.77
2022-07-30T11:38:01.932Z,53.37
2022-07-30T11:43:34.931Z,52.18
2022-07-30T11:46:07.150Z,49.97
2022-07-30T11:48:39.146Z,49.66
2022-07-30T11:51:05.919Z,49.06
2022-07-30T11:53:33.044Z,48.19
2022-07-30T11:56:02.274Z,48.73
2022-07-30T11:58:29.961Z,48.21
2022-07-30T12:01:00.822Z,48.18
2022-07-30T12:03:29.864Z,47.72
2022-07-30T12:05:56.921Z,46.79
2022-07-30T12:08:33.379Z,46.32
2022-07-30T12:11:03.123Z,46.17
2022-07-30T12:13:45.462Z,46.74
2022-07-30T12:16:16.274Z,47.02
2022-07-30T12:18:43.993Z,45.40
2022-07-30T12:21:17.289Z,45.24
2022-07-30T12:23:59.463Z,45.64
2022-07-30T12:26:29.319Z,44.85
2022-07-30T12:29:01.458Z,45.44
2022-07-30T12:31:28.415Z,44.44
2022-07-30T12:33:58.940Z,44.09
2022-07-30T12:36:26.093Z,44.27
2022-07-30T12:38:54.569Z,44.51
2022-07-30T12:41:21.964Z,43.38
2022-07-30T12:43:55.777Z,42.38
2022-07-30T12:46:27.035Z,44.70
2022-07-30T12:49:10.281Z,44.91
2022-07-30T12:51:59.733Z,43.83
2022-07-30T12:54:27.690Z,43.54
2022-07-30T12:56:59.406Z,43.14
2022-07-30T12:59:27.123Z,43.66
2022-07-30T13:01:54.440Z,43.18
2022-07-30T13:04:20.991Z,42.61
2022-07-30T13:07:10.585Z,43.25
2022-07-30T13:09:37.673Z,43.34
2022-07-30T13:12:05.266Z,40.85
2022-07-30T13:14:32.306Z,41.54
2022-07-30T13:16:59.121Z,41.38
2022-07-30T13:19:26.980Z,41.06
2022-07-30T13:21:53.571Z,41.33
2022-07-30T13:24:20.692Z,41.60
2022-07-30T13:26:47.800Z,41.51
2022-07-30T13:29:17.172Z,41.67
2022-07-30T13:31:43.902Z,41.97
2022-07-30T13:34:12.094Z,42.08
2022-07-30T13:36:38.840Z,41.18
2022-07-30T13:39:05.289Z,41.50
2022-07-30T13:41:31.730Z,40.97
2022-07-30T13:43:58.199Z,40.61
2022-07-30T13:46:24.834Z,39.86
2022-07-30T13:48:52.105Z,39.68
2022-07-30T13:51:18.810Z,38.58
2022-07-30T13:53:45.481Z,39.69
2022-07-30T13:56:12.408Z,39.51
2022-07-30T13:58:39.695Z,39.30
2022-07-30T14:01:07.037Z,39.48
2022-07-30T14:03:33.829Z,39.49
2022-07-30T14:06:10.178Z,40.46
2022-07-30T14:08:38.708Z,40.21
2022-07-30T14:11:05.259Z,40.16
2022-07-30T14:13:31.730Z,41.62
2022-07-30T14:15:58.423Z,39.78
2022-07-30T14:18:24.871Z,39.80
2022-07-30T14:20:53.580Z,41.02
2022-07-30T14:23:20.261Z,41.26
2022-07-30T14:25:46.830Z,41.11
2022-07-30T14:28:13.915Z,41.95
2022-07-30T14:30:40.380Z,41.62
2022-07-30T14:33:06.854Z,40.61
2022-07-30T14:35:33.380Z,40.85
2022-07-30T14:37:59.936Z,40.90
2022-07-30T14:40:26.440Z,41.01
2022-07-30T14:42:52.908Z,41.23
2022-07-30T14:45:23.089Z,41.06
2022-07-30T14:47:49.512Z,41.32
2022-07-30T14:50:15.947Z,41.59
2022-07-30T14:52:42.564Z,40.78
2022-07-30T14:55:09.945Z,39.93
2022-07-30T14:57:36.725Z,39.68
2022-07-30T15:00:07.488Z,37.83
2022-07-30T15:02:34.399Z,39.51
2022-07-30T15:05:00.816Z,38.63
2022-07-30T15:07:27.658Z,39.45
2022-07-30T15:09:54.055Z,36.26
2022-07-30T15:12:23.583Z,35.54
2022-07-30T15:14:53.879Z,36.57
2022-07-30T15:17:20.458Z,36.25
2022-07-30T15:19:50.304Z,36.00
2022-07-30T15:22:18.243Z,36.18
2022-07-30T15:24:44.736Z,35.76
2022-07-30T15:27:11.569Z,35.86
2022-07-30T15:29:38.213Z,35.49
2022-07-30T15:32:05.275Z,34.90
2022-07-30T15:34:34.481Z,35.71
2022-07-30T15:37:02.623Z,35.90
2022-07-30T15:39:32.222Z,34.12
2022-07-30T15:42:06.002Z,36.41
2022-07-30T15:44:32.889Z,34.11
2022-07-30T15:47:00.306Z,34.53
2022-07-30T15:49:27.806Z,34.95
2022-07-30T15:51:54.648Z,35.12
2022-07-30T15:54:23.430Z,35.96
2022-07-30T15:56:51.178Z,37.41
2022-07-30T15:59:18.014Z,36.75
2022-07-30T16:01:44.624Z,37.71
2022-07-30T16:04:19.499Z,37.06
2022-07-30T16:06:47.594Z,37.49
2022-07-30T16:09:14.681Z,38.18
2022-07-30T16:11:43.002Z,38.76
2022-07-30T16:14:10.008Z,39.72
2022-07-30T16:16:36.736Z,41.05
2022-07-30T16:19:03.358Z,40.21
2022-07-30T16:21:29.928Z,40.86
2022-07-30T16:23:56.648Z,40.55
2022-07-30T16:26:23.116Z,40.92
2022-07-30T16:28:49.882Z,40.78
2022-07-30T16:31:16.564Z,40.96
2022-07-30T16:33:43.208Z,42.24
2022-07-30T16:36:10.065Z,43.00
2022-07-30T16:38:36.594Z,43.11
2022-07-30T16:41:03.650Z,44.13
2022-07-30T16:43:31.843Z,44.38
2022-07-30T16:45:59.454Z,44.24
2022-07-30T16:48:26.642Z,43.55
2022-07-30T16:50:53.285Z,43.76
2022-07-30T16:53:20.071Z,44.28
2022-07-30T16:55:47.002Z,43.86
2022-07-30T16:58:13.652Z,44.32
2022-07-30T17:00:40.220Z,44.68
2022-07-30T17:03:06.869Z,44.50
2022-07-30T17:05:33.566Z,44.61
2022-07-30T17:08:00.186Z,44.23
2022-07-30T17:10:27.268Z,44.44
2022-07-30T17:12:56.958Z,44.51
2022-07-30T17:15:32.211Z,42.99
2022-07-30T17:18:03.050Z,43.60
2022-07-30T17:20:31.249Z,44.44
2022-07-30T17:22:57.837Z,44.93
2022-07-30T17:25:28.341Z,45.97
2022-07-30T17:27:56.263Z,46.37
2022-07-30T17:30:23.588Z,46.78
2022-07-30T17:32:50.965Z,47.18
2022-07-30T17:35:17.731Z,48.05
2022-07-30T17:37:44.359Z,48.83
2022-07-30T17:40:28.843Z,49.29
2022-07-30T17:43:03.231Z,49.87
2022-07-30T17:45:30.712Z,49.95
2022-07-30T17:47:57.853Z,50.42
2022-07-30T17:50:24.291Z,50.59
2022-07-30T17:52:50.841Z,50.53
2022-07-30T17:55:17.395Z,50.32
2022-07-30T17:57:43.804Z,50.37
2022-07-30T18:00:10.976Z,50.93
2022-07-30T18:02:37.416Z,51.29
2022-07-30T18:05:04.192Z,51.51
2022-07-30T18:07:31.088Z,51.05
2022-07-30T18:09:57.593Z,51.54
2022-07-30T18:12:24.085Z,52.18
2022-07-30T18:14:50.499Z,52.70
2022-07-30T18:17:16.932Z,52.51
2022-07-30T18:19:43.464Z,52.76
2022-07-30T18:22:10.062Z,53.13
2022-07-30T18:24:40.360Z,53.08
2022-07-30T18:27:11.586Z,52.99
2022-07-30T18:29:38.173Z,53.55
2022-07-30T18:32:05.486Z,53.29
2022-07-30T18:34:32.382Z,53.04
2022-07-30T18:36:58.877Z,52.93
2022-07-30T18:39:25.377Z,53.14
2022-07-30T18:41:51.914Z,53.16
2022-07-30T18:44:18.446Z,53.67
2022-07-30T18:46:45.463Z,53.32
2022-07-30T18:49:34.270Z,53.49
2022-07-30T18:52:00.355Z,53.73
2022-07-30T18:54:27.300Z,53.50
2022-07-30T18:56:53.750Z,53.81
2022-07-30T18:59:20.208Z,54.15
2022-07-30T19:01:46.637Z,54.31
2022-07-30T19:04:13.258Z,55.04
2022-07-30T19:06:39.945Z,55.38
2022-07-30T19:09:10.120Z,55.49
2022-07-30T19:11:45.266Z,55.99
2022-07-30T19:14:13.109Z,56.26
2022-07-30T19:16:40.586Z,56.61
2022-07-30T19:19:07.074Z,56.73
2022-07-30T19:21:33.810Z,56.84
2022-07-30T19:24:00.473Z,57.17
2022-07-30T19:26:26.978Z,57.28
2022-07-30T19:28:53.388Z,57.70
2022-07-30T19:31:19.887Z,57.77
2022-07-30T19:33:46.352Z,57.35
2022-07-30T19:36:15.095Z,58.31
2022-07-30T19:38:45.053Z,58.52
2022-07-30T19:41:11.979Z,58.76
2022-07-30T19:43:40.592Z,59.56
2022-07-30T19:46:07.083Z,60.09
2022-07-30T19:48:36.085Z,60.82
2022-07-30T19:51:03.461Z,61.25
2022-07-30T19:53:34.105Z,61.61
2022-07-30T19:56:04.405Z,59.05
2022-07-30T19:58:36.607Z,62.13
2022-07-30T20:01:03.979Z,62.67
2022-07-30T20:03:35.663Z,63.19
2022-07-30T20:06:02.258Z,63.57
2022-07-30T20:08:29.555Z,63.87
2022-07-30T20:10:57.755Z,64.26
2022-07-30T20:13:44.518Z,64.47
2022-07-30T20:16:14.311Z,64.71
2022-07-30T20:18:42.878Z,64.85
2022-07-30T20:21:15.187Z,65.35
2022-07-30T20:23:43.454Z,65.33
2022-07-30T20:26:13.700Z,65.28
2022-07-30T20:28:42.103Z,65.75
2022-07-30T20:31:08.802Z,65.62
2022-07-30T20:33:38.083Z,65.85
2022-07-30T20:36:06.087Z,66.29
2022-07-30T20:38:37.590Z,66.34
2022-07-30T20:41:09.930Z,66.41
2022-07-30T20:43:51.592Z,66.56
2022-07-30T20:46:20.332Z,67.26
2022-07-30T20:48:47.131Z,67.49
2022-07-30T20:51:14.003Z,68.21
2022-07-30T20:53:41.881Z,69.24
2022-07-30T20:56:12.211Z,69.02
2022-07-30T20:58:40.901Z,70.06
2022-07-30T21:01:07.790Z,70.03
2022-07-30T21:03:34.292Z,70.36
2022-07-30T21:06:02.596Z,71.32
2022-07-30T21:08:29.145Z,72.06
2022-07-30T21:10:57.647Z,72.71
2022-07-30T21:13:26.996Z,72.96
2022-07-30T21:16:02.355Z,73.57
2022-07-30T21:18:29.773Z,73.97
2022-07-30T21:20:57.329Z,74.57
2022-07-30T21:23:23.866Z,75.05
2022-07-30T21:26:01.139Z,75.62
2022-07-30T21:28:35.248Z,76.43
2022-07-30T21:31:07.078Z,76.47
2022-07-30T21:33:36.186Z,77.26
2022-07-30T21:36:02.721Z,76.77
2022-07-30T21:38:31.754Z,77.62
2022-07-30T21:40:58.523Z,77.74
2022-07-30T21:43:29.995Z,78.11
2022-07-30T21:45:57.628Z,78.26
2022-07-30T21:48:24.438Z,78.06
2022-07-30T21:50:51.063Z,78.65
2022-07-30T21:53:17.474Z,78.48
2022-07-30T21:55:56.886Z,78.30
2022-07-30T21:58:26.360Z,78.50
2022-07-30T22:00:54.968Z,78.50
2022-07-30T22:04:03.247Z,79.26
2022-07-30T22:06:12.679Z,79.53
2022-07-30T22:08:39.648Z,79.39
2022-07-30T22:11:09.055Z,79.87
2022-07-30T22:13:36.195Z,80.21
2022-07-30T22:16:21.325Z,79.97
2022-07-30T22:18:48.054Z,80.37
2022-07-30T22:21:14.665Z,80.39
2022-07-30T22:23:41.353Z,80.20
2022-07-30T22:26:23.702Z,80.58
2022-07-30T22:28:53.201Z,80.71
2022-07-30T22:31:20.952Z,80.42
2022-07-30T22:33:49.793Z,80.71
2022-07-30T22:36:17.828Z,80.50
2022-07-30T22:41:39.184Z,80.69
2022-07-30T22:44:06.644Z,80.65
2022-07-30T22:46:35.963Z,80.38
2022-07-30T22:49:04.416Z,80.80
2022-07-30T22:52:00.848Z,80.63
2022-07-30T22:54:18.002Z,80.92
2022-07-30T22:56:46.277Z,81.24
2022-07-30T22:59:13.664Z,81.12
2022-07-30T23:01:43.521Z,81.36
2022-07-30T23:04:10.369Z,81.55
2022-07-30T23:06:37.211Z,81.35
2022-07-30T23:09:07.643Z,81.27
2022-07-30T23:11:38.733Z,81.24
2022-07-30T23:12:29.024Z,80.42
2022-07-30T23:14:06.632Z,81.51
2022-07-30T23:16:33.102Z,81.31
2022-07-30T23:18:59.869Z,81.50
2022-07-30T23:21:26.316Z,81.27
2022-07-30T23:23:53.064Z,81.35
2022-07-30T23:26:19.593Z,81.00
2022-07-30T23:28:47.271Z,81.34
2022-07-30T23:31:13.770Z,81.15
2022-07-30T23:33:43.091Z,80.85
2022-07-30T23:36:09.839Z,80.47
2022-07-30T23:38:36.935Z,80.88
2022-07-30T23:41:04.279Z,80.65
2022-07-30T23:43:31.475Z,80.67
2022-07-30T23:45:58.182Z,80.51
2022-07-30T23:48:24.667Z,80.54
2022-07-30T23:50:51.864Z,80.20
2022-07-30T23:53:18.509Z,80.42
2022-07-30T23:55:47.585Z,80.24
2022-07-30T23:58:14.752Z,80.23
